Time,TemperatureF,DewpointF,PressureIn,WindDirection,WindDirectionDegrees,WindSpeedMPH,WindSpeedGustMPH,Humidity,HourlyPrecipIn,Conditions,Clouds,dailyrainin,SoftwareType,DateUTC
2013-03-10 00:13:00,37.8,33.0,30.31,NE,53,2.0,14.0,84,0.00,,,0.00,weatherlink.com 1.10,2013-03-10 05:13:00,
2013-03-10 00:28:00,37.6,33.0,30.31,ENE,57,7.0,9.0,84,0.00,,,0.00,weatherlink.com 1.10,2013-03-10 05:28:00,
2013-03-10 00:43:00,37.7,33.0,30.32,East,81,1.0,8.0,84,0.00,,,0.00,weatherlink.com 1.10,2013-03-10 05:43:00,
2013-03-10 00:58:00,37.8,33.0,30.32,NNE,20,4.0,8.0,84,0.00,,,0.00,weatherlink.com 1.10,2013-03-10 05:58:00,
2013-03-10 01:13:00,37.8,33.0,30.32,North,359,9.0,11.0,83,0.00,,,0.00,weatherlink.com 1.10,2013-03-10 06:13:00,
2013-03-10 01:28:00,38.0,33.0,30.32,NE,53,4.0,13.0,83,0.00,,,0.00,weatherlink.com 1.10,2013-03-10 06:28:00,
2013-03-10 01:43:00,37.9,33.0,30.32,North,6,3.0,12.0,83,0.00,,,0.00,weatherlink.com 1.10,2013-03-10 06:43:00,
2013-03-10 01:58:00,38.0,33.0,30.32,NNE,23,3.0,11.0,83,0.00,,,0.00,weatherlink.com 1.10,2013-03-10 06:58:00,
2013-03-10 03:13:00,37.9,33.0,30.32,NW,322,1.0,10.0,83,0.00,,,0.00,weatherlink.com 1.10,2013-03-10 07:13:00,
2013-03-10 03:28:00,37.9,33.0,30.32,NE,40,3.0,12.0,82,0.00,,,0.00,weatherlink.com 1.10,2013-03-10 07:28:00,
2013-03-10 03:43:00,38.0,33.0,30.32,ENE,58,4.0,9.0,83,0.00,,,0.00,weatherlink.com 1.10,2013-03-10 07:43:00,
2013-03-10 03:58:00,37.8,33.0,30.32,NW,318,4.0,9.0,82,0.00,,,0.00,weatherlink.com 1.10,2013-03-10 07:58:00,
2013-03-10 04:13:00,37.7,33.0,30.32,NE,52,3.0,11.0,82,0.00,,,0.00,weatherlink.com 1.10,2013-03-10 08:13:00,
2013-03-10 04:28:00,37.7,33.0,30.32,NNW,347,2.0,10.0,82,0.00,,,0.00,weatherlink.com 1.10,2013-03-10 08:28:00,
2013-03-10 04:43:00,37.6,33.0,30.32,NNE,13,4.0,9.0,82,0.00,,,0.00,weatherlink.com 1.10,2013-03-10 08:43:00,
2013-03-10 04:58:00,37.6,33.0,30.33,NE,45,1.0,13.0,82,0.00,,,0.00,weatherlink.com 1.10,2013-03-10 08:58:00,
2013-03-10 05:13:00,37.6,33.0,30.34,ENE,75,3.0,7.0,83,0.00,,,0.00,weatherlink.com 1.10,2013-03-10 09:13:00,
2013-03-10 05:28:00,37.5,33.0,30.34,NE,40,4.0,8.0,83,0.00,,,0.00,weatherlink.com 1.10,2013-03-10 09:28:00,
2013-03-10 05:43:00,37.5,33.0,30.34,NE,44,2.0,8.0,82,0.00,,,0.00,weatherlink.com 1.10,2013-03-10 09:43:00,
2013-03-10 05:58:00,37.5,33.0,30.35,NW,325,2.0,7.0,83,0.00,,,0.00,weatherlink.com 1.10,2013-03-10 09:58:00,
2013-03-10 06:13:00,37.5,33.0,30.35,NNW,333,5.0,8.0,83,0.00,,,0.00,weatherlink.com 1.10,2013-03-10 10:13:00,
2013-03-10 06:28:00,37.5,33.0,30.36,NNW,333,3.0,8.0,83,0.00,,,0.00,weatherlink.com 1.10,2013-03-10 10:28:00,
2013-03-10 06:43:00,37.4,32.0,30.36,NE,37,2.0,11.0,82,0.00,,,0.00,weatherlink.com 1.10,2013-03-10 10:43:00,
2013-03-10 06:58:00,37.3,33.0,30.36,NE,36,4.0,14.0,83,0.00,,,0.00,weatherlink.com 1.10,2013-03-10 10:58:00,
2013-03-10 07:13:00,37.3,32.0,30.36,East,79,5.0,10.0,82,0.00,,,0.00,weatherlink.com 1.10,2013-03-10 11:13:00,
2013-03-10 07:28:00,37.5,33.0,30.36,ENE,61,6.0,13.0,82,0.00,,,0.00,weatherlink.com 1.10,2013-03-10 11:28:00,
2013-03-10 07:43:00,37.5,33.0,30.36,NE,35,2.0,10.0,82,0.00,,,0.00,weatherlink.com 1.10,2013-03-10 11:43:00,
2013-03-10 07:58:00,37.6,33.0,30.36,NNW,340,4.0,10.0,82,0.00,,,0.00,weatherlink.com 1.10,2013-03-10 11:58:00,
2013-03-10 08:13:00,37.7,33.0,30.36,ENE,66,7.0,9.0,82,0.00,,,0.00,weatherlink.com 1.10,2013-03-10 12:13:00,
2013-03-10 08:28:00,38.0,33.0,30.37,NNW,332,6.0,8.0,82,0.00,,,0.00,weatherlink.com 1.10,2013-03-10 12:28:00,
2013-03-10 08:43:00,38.0,33.0,30.38,ENE,60,3.0,8.0,82,0.00,,,0.00,weatherlink.com 1.10,2013-03-10 12:43:00,
2013-03-10 08:58:00,38.3,33.0,30.38,NNE,23,4.0,11.0,82,0.00,,,0.00,weatherlink.com 1.10,2013-03-10 12:58:00,
2013-03-10 09:14:00,38.4,33.0,30.38,ENE,71,10.0,10.0,81,0.00,,,0.00,weatherlink.com 1.10,2013-03-10 13:14:00,
2013-03-10 09:28:00,38.3,33.0,30.38,ESE,108,3.0,15.0,81,0.00,,,0.00,weatherlink.com 1.10,2013-03-10 13:28:00,
2013-03-10 09:43:00,38.7,34.0,30.38,North,358,4.0,10.0,82,0.00,,,0.00,weatherlink.com 1.10,2013-03-10 13:43:00,
2013-03-10 09:59:00,39.1,33.0,30.38,East,82,5.0,12.0,80,0.00,,,0.00,weatherlink.com 1.10,2013-03-10 13:59:00,
2013-03-10 10:14:00,38.7,33.0,30.39,East,90,4.0,16.0,79,0.00,,,0.00,weatherlink.com 1.10,2013-03-10 14:14:00,
2013-03-10 10:29:00,38.9,34.0,30.39,NE,50,3.0,11.0,81,0.00,,,0.00,weatherlink.com 1.10,2013-03-10 14:29:00,
2013-03-10 10:44:00,39.3,34.0,30.39,ENE,76,6.0,12.0,80,0.00,,,0.00,weatherlink.com 1.10,2013-03-10 14:44:00,
2013-03-10 10:59:00,39.4,33.0,30.39,ENE,75,12.0,13.0,79,0.00,,,0.00,weatherlink.com 1.10,2013-03-10 14:59:00,
2013-03-10 11:14:00,39.5,34.0,30.39,North,5,3.0,10.0,80,0.00,,,0.00,weatherlink.com 1.10,2013-03-10 15:14:00,
2013-03-10 11:29:00,39.6,33.0,30.39,NNE,18,2.0,10.0,78,0.00,,,0.00,weatherlink.com 1.10,2013-03-10 15:29:00,
2013-03-10 11:44:00,39.8,34.0,30.40,NNE,33,4.0,7.0,79,0.00,,,0.00,weatherlink.com 1.10,2013-03-10 15:44:00,
2013-03-10 11:59:00,39.3,34.0,30.40,East,88,2.0,9.0,80,0.00,,,0.00,weatherlink.com 1.10,2013-03-10 15:59:00,
2013-03-10 12:14:00,38.9,34.0,30.40,NE,34,3.0,12.0,81,0.00,,,0.00,weatherlink.com 1.10,2013-03-10 16:14:00,
2013-03-10 12:29:00,39.0,33.0,30.40,NNE,20,5.0,13.0,80,0.00,,,0.00,weatherlink.com 1.10,2013-03-10 16:29:00,
2013-03-10 12:44:00,39.2,33.0,30.39,East,79,5.0,9.0,78,0.00,,,0.00,weatherlink.com 1.10,2013-03-10 16:44:00,
2013-03-10 12:59:00,39.3,34.0,30.39,NNW,336,1.0,10.0,80,0.00,,,0.00,weatherlink.com 1.10,2013-03-10 16:59:00,
2013-03-10 13:14:00,39.3,33.0,30.39,NE,40,3.0,10.0,79,0.00,,,0.00,weatherlink.com 1.10,2013-03-10 17:14:00,
2013-03-10 13:29:00,39.7,33.0,30.38,ENE,76,5.0,8.0,78,0.00,,,0.00,weatherlink.com 1.10,2013-03-10 17:29:00,
2013-03-10 13:44:00,39.6,33.0,30.38,NNE,19,3.0,10.0,78,0.00,,,0.00,weatherlink.com 1.10,2013-03-10 17:44:00,
2013-03-10 13:59:00,39.7,33.0,30.37,North,350,3.0,13.0,78,0.00,,,0.00,weatherlink.com 1.10,2013-03-10 17:59:00,
2013-03-10 14:14:00,40.1,33.0,30.37,NNE,32,5.0,9.0,76,0.00,,,0.00,weatherlink.com 1.10,2013-03-10 18:14:00,
2013-03-10 14:29:00,40.0,34.0,30.37,ESE,110,10.0,16.0,80,0.00,,,0.00,weatherlink.com 1.10,2013-03-10 18:29:00,
2013-03-10 14:44:00,39.2,34.0,30.36,ENE,78,11.0,14.0,80,0.00,,,0.00,weatherlink.com 1.10,2013-03-10 18:44:00,
2013-03-10 14:59:00,40.0,33.0,30.36,East,79,5.0,8.0,77,0.00,,,0.00,weatherlink.com 1.10,2013-03-10 18:59:00,
2013-03-10 15:14:00,39.4,34.0,30.37,NE,37,4.0,14.0,80,0.00,,,0.00,weatherlink.com 1.10,2013-03-10 19:14:00,
2013-03-10 15:29:00,40.3,34.0,30.37,NW,325,4.0,7.0,77,0.00,,,0.00,weatherlink.com 1.10,2013-03-10 19:29:00,
2013-03-10 15:44:00,40.1,33.0,30.36,East,98,6.0,10.0,76,0.00,,,0.00,weatherlink.com 1.10,2013-03-10 19:44:00,
2013-03-10 15:59:00,39.6,33.0,30.36,NE,52,3.0,13.0,78,0.00,,,0.00,weatherlink.com 1.10,2013-03-10 19:59:00,
2013-03-10 16:14:00,39.8,33.0,30.36,NE,53,5.0,11.0,78,0.00,,,0.00,weatherlink.com 1.10,2013-03-10 20:14:00,
2013-03-10 16:29:00,38.7,33.0,30.36,East,86,7.0,12.0,80,0.00,,,0.00,weatherlink.com 1.10,2013-03-10 20:29:00,
2013-03-10 16:44:00,38.6,33.0,30.36,NNE,29,2.0,14.0,80,0.00,,,0.00,weatherlink.com 1.10,2013-03-10 20:44:00,
2013-03-10 16:59:00,38.9,33.0,30.36,ENE,78,5.0,9.0,79,0.00,,,0.00,weatherlink.com 1.10,2013-03-10 20:59:00,
2013-03-10 17:14:00,38.1,33.0,30.36,ENE,77,5.0,14.0,81,0.00,,,0.00,weatherlink.com 1.10,2013-03-10 21:14:00,
2013-03-10 17:29:00,37.7,32.0,30.36,East,80,11.0,12.0,81,0.00,,,0.00,weatherlink.com 1.10,2013-03-10 21:29:00,
2013-03-10 17:44:00,37.4,32.0,30.36,NNE,32,3.0,12.0,81,0.00,,,0.00,weatherlink.com 1.10,2013-03-10 21:44:00,
2013-03-10 17:59:00,37.4,32.0,30.36,NNE,20,2.0,12.0,82,0.00,,,0.00,weatherlink.com 1.10,2013-03-10 21:59:00,
2013-03-10 18:14:00,37.3,32.0,30.37,East,84,3.0,10.0,82,0.00,,,0.00,weatherlink.com 1.10,2013-03-10 22:14:00,
2013-03-10 18:29:00,37.3,33.0,30.36,North,8,2.0,8.0,83,0.00,,,0.00,weatherlink.com 1.10,2013-03-10 22:29:00,
2013-03-10 18:44:00,37.3,33.0,30.36,East,89,4.0,6.0,84,0.00,,,0.00,weatherlink.com 1.10,2013-03-10 22:44:00,
2013-03-10 18:59:00,37.3,33.0,30.36,NE,37,1.0,12.0,84,0.00,,,0.00,weatherlink.com 1.10,2013-03-10 22:59:00,
2013-03-10 19:14:00,37.2,33.0,30.36,East,86,9.0,11.0,84,0.00,,,0.00,weatherlink.com 1.10,2013-03-10 23:14:00,
2013-03-10 19:29:00,37.1,33.0,30.37,East,80,4.0,7.0,84,0.00,,,0.00,weatherlink.com 1.10,2013-03-10 23:29:00,
2013-03-10 19:59:00,36.9,33.0,30.38,ENE,76,2.0,9.0,84,0.00,,,0.00,weatherlink.com 1.10,2013-03-10 23:59:00,
2013-03-10 20:14:00,36.8,32.0,30.38,ENE,67,0.0,2.0,84,0.00,,,0.00,weatherlink.com 1.10,2013-03-11 00:14:00,
2013-03-10 20:29:00,36.8,33.0,30.38,ESE,105,6.0,6.0,85,0.00,,,0.00,weatherlink.com 1.10,2013-03-11 00:29:00,
2013-03-10 20:44:00,36.8,33.0,30.38,East,80,7.0,8.0,85,0.00,,,0.00,weatherlink.com 1.10,2013-03-11 00:44:00,
2013-03-10 20:59:00,36.6,33.0,30.38,East,100,7.0,9.0,85,0.00,,,0.00,weatherlink.com 1.10,2013-03-11 00:59:00,
2013-03-10 21:14:00,36.3,32.0,30.38,East,91,3.0,7.0,84,0.00,,,0.00,weatherlink.com 1.10,2013-03-11 01:14:00,
2013-03-10 21:29:00,36.2,32.0,30.37,East,80,8.0,8.0,85,0.00,,,0.00,weatherlink.com 1.10,2013-03-11 01:29:00,
2013-03-10 21:44:00,36.0,32.0,30.38,SE,146,5.0,6.0,85,0.00,,,0.00,weatherlink.com 1.10,2013-03-11 01:44:00,
2013-03-10 21:59:00,35.9,32.0,30.37,ESE,121,5.0,9.0,85,0.00,,,0.00,weatherlink.com 1.10,2013-03-11 01:59:00,
2013-03-10 22:14:00,35.9,32.0,30.37,SE,129,3.0,9.0,85,0.00,,,0.00,weatherlink.com 1.10,2013-03-11 02:14:00,
2013-03-10 22:29:00,35.7,32.0,30.37,ESE,121,3.0,5.0,85,0.00,,,0.00,weatherlink.com 1.10,2013-03-11 02:29:00,
2013-03-10 22:44:00,35.7,32.0,30.37,SE,125,5.0,6.0,86,0.00,,,0.00,weatherlink.com 1.10,2013-03-11 02:44:00,
2013-03-10 22:59:00,35.9,32.0,30.35,ESE,120,7.0,8.0,86,0.00,,,0.00,weatherlink.com 1.10,2013-03-11 02:59:00,
2013-03-10 23:15:00,35.9,32.0,30.36,SE,130,6.0,11.0,86,0.00,,,0.00,weatherlink.com 1.10,2013-03-11 03:15:00,
2013-03-10 23:30:00,36.1,32.0,30.37,ESE,118,6.0,8.0,86,0.00,,,0.00,weatherlink.com 1.10,2013-03-11 03:30:00,
2013-03-10 23:45:00,36.1,32.0,30.37,SE,128,4.0,8.0,86,0.00,,,0.00,weatherlink.com 1.10,2013-03-11 03:45:00,